createdAt,value
2019-05-01T00:01:59.762Z,45.60
2019-05-01T00:04:55.163Z,39.80
2019-05-01T00:07:34.052Z,52.20
2019-05-01T00:10:04.015Z,51.60
2019-05-01T00:12:34.376Z,43.40
2019-05-01T00:15:04.430Z,42.40
2019-05-01T00:17:34.513Z,43.00
2019-05-01T00:20:05.169Z,37.60
2019-05-01T00:22:35.486Z,47.60
2019-05-01T00:25:05.968Z,38.20
2019-05-01T00:27:35.993Z,49.00
2019-05-01T00:30:08.141Z,43.60
2019-05-01T00:32:38.061Z,32.80
2019-05-01T00:35:08.037Z,45.60
2019-05-01T00:37:38.137Z,41.80
2019-05-01T00:40:08.040Z,48.00
2019-05-01T00:42:37.865Z,49.20
2019-05-01T00:45:07.910Z,45.20
2019-05-01T00:47:38.102Z,47.80
2019-05-01T00:50:08.041Z,55.20
2019-05-01T00:52:37.880Z,44.00
2019-05-01T00:55:38.485Z,46.40
2019-05-01T00:58:20.773Z,44.20
2019-05-01T01:01:12.708Z,41.80
2019-05-01T01:03:42.776Z,42.00
2019-05-01T01:06:12.754Z,36.00
2019-05-01T01:08:43.170Z,33.80
2019-05-01T01:11:13.027Z,39.20
2019-05-01T01:13:43.467Z,46.00
2019-05-01T01:16:13.651Z,50.00
2019-05-01T01:18:43.581Z,34.60
2019-05-01T01:21:14.246Z,39.80
2019-05-01T01:23:44.372Z,50.20
2019-05-01T01:26:14.495Z,51.40
2019-05-01T01:28:44.548Z,51.40
2019-05-01T01:31:15.297Z,43.80
2019-05-01T01:33:45.049Z,49.20
2019-05-01T01:36:15.446Z,35.40
2019-05-01T01:38:45.622Z,42.60
2019-05-01T01:41:15.742Z,39.00
2019-05-01T01:44:03.052Z,59.80
2019-05-01T01:46:33.957Z,46.80
2019-05-01T01:49:04.106Z,42.80
2019-05-01T01:51:34.242Z,50.00
2019-05-01T01:54:04.103Z,45.80
2019-05-01T01:56:34.315Z,42.00
2019-05-01T01:59:04.827Z,34.20
2019-05-01T02:01:45.766Z,34.80
2019-05-01T02:04:25.925Z,43.80
2019-05-01T02:06:55.941Z,52.00
2019-05-01T02:09:32.115Z,41.00
2019-05-01T02:12:02.206Z,48.00
2019-05-01T02:14:32.213Z,45.80
2019-05-01T02:17:01.994Z,48.60
2019-05-01T02:19:31.932Z,46.60
2019-05-01T02:22:01.960Z,41.00
2019-05-01T02:24:31.765Z,44.40
2019-05-01T02:27:04.535Z,53.40
2019-05-01T02:29:40.122Z,43.60
2019-05-01T02:32:09.814Z,36.60
2019-05-01T02:34:40.078Z,36.40
2019-05-01T02:37:09.912Z,39.20
2019-05-01T02:39:39.833Z,36.60
2019-05-01T02:42:09.646Z,34.40
2019-05-01T02:44:48.031Z,51.00
2019-05-01T02:47:23.711Z,48.00
2019-05-01T02:49:53.818Z,40.80
2019-05-01T02:52:24.396Z,43.80
2019-05-01T02:54:54.873Z,40.60
2019-05-01T02:57:24.569Z,39.40
2019-05-01T02:59:54.376Z,43.60
2019-05-01T03:02:24.932Z,39.80
2019-05-01T03:04:55.274Z,42.60
2019-05-01T03:07:25.491Z,41.80
2019-05-01T03:09:55.475Z,46.00
2019-05-01T03:12:25.320Z,34.20
2019-05-01T03:14:55.265Z,37.60
2019-05-01T03:17:53.146Z,30.80
2019-05-01T03:20:48.206Z,38.20
2019-05-01T03:23:22.860Z,38.40
2019-05-01T03:25:52.651Z,39.60
2019-05-01T03:28:22.768Z,37.80
2019-05-01T03:30:52.698Z,42.20
2019-05-01T03:33:22.311Z,36.40
2019-05-01T03:35:52.276Z,45.40
2019-05-01T03:38:21.956Z,36.40
2019-05-01T03:40:52.120Z,36.60
2019-05-01T03:43:22.022Z,48.00
2019-05-01T03:45:51.937Z,49.20
2019-05-01T03:48:21.594Z,43.40
2019-05-01T03:50:51.361Z,39.40
2019-05-01T03:53:21.684Z,34.40
2019-05-01T03:55:51.359Z,32.40
2019-05-01T03:58:21.368Z,43.40
2019-05-01T04:01:19.297Z,47.00
2019-05-01T04:03:54.878Z,38.80
2019-05-01T04:06:24.834Z,38.60
2019-05-01T04:08:54.762Z,41.80
2019-05-01T04:11:24.656Z,42.80
2019-05-01T04:13:54.629Z,37.80
2019-05-01T04:16:24.399Z,43.60
2019-05-01T04:18:54.198Z,44.60
2019-05-01T04:21:28.225Z,39.00
2019-05-01T04:23:58.021Z,42.80
2019-05-01T04:26:27.840Z,47.20
2019-05-01T04:29:22.552Z,38.20
2019-05-01T04:31:57.141Z,40.20
2019-05-01T04:34:48.980Z,46.60
2019-05-01T04:37:20.399Z,42.80
2019-05-01T04:39:50.255Z,42.80
2019-05-01T04:42:20.424Z,45.00
2019-05-01T04:44:50.509Z,45.80
2019-05-01T04:47:20.122Z,36.00
2019-05-01T04:49:49.752Z,47.20
2019-05-01T04:52:19.717Z,38.60
2019-05-01T04:54:49.507Z,35.40
2019-05-01T04:57:19.384Z,46.20
2019-05-01T04:59:49.273Z,44.80
2019-05-01T05:02:27.225Z,47.20
2019-05-01T05:04:57.115Z,42.80
2019-05-01T05:07:27.679Z,48.40
2019-05-01T05:09:57.823Z,30.40
2019-05-01T05:12:37.133Z,38.20
2019-05-01T05:15:18.628Z,50.80
2019-05-01T05:17:48.348Z,39.80
2019-05-01T05:20:18.069Z,45.20
2019-05-01T05:22:48.217Z,48.40
2019-05-01T05:25:18.076Z,33.80
2019-05-01T05:27:47.878Z,46.20
2019-05-01T05:30:17.940Z,55.40
2019-05-01T05:32:47.743Z,68.60
2019-05-01T05:35:17.418Z,67.00
2019-05-01T05:38:04.735Z,60.60
2019-05-01T05:40:36.074Z,55.60
2019-05-01T05:43:06.050Z,53.20
2019-05-01T05:45:37.805Z,48.40
2019-05-01T05:48:07.587Z,45.00
2019-05-01T05:50:43.242Z,64.00
2019-05-01T05:53:14.445Z,52.80
2019-05-01T05:55:47.842Z,45.00
2019-05-01T05:58:37.127Z,52.60
2019-05-01T06:01:18.467Z,46.00
2019-05-01T06:04:11.687Z,40.80
2019-05-01T06:07:03.992Z,48.60
2019-05-01T06:09:56.133Z,42.80
2019-05-01T06:12:50.815Z,33.60
2019-05-01T06:15:48.858Z,48.80
2019-05-01T06:18:23.014Z,41.00
2019-05-01T06:21:09.427Z,35.60
2019-05-01T06:23:47.018Z,36.00
2019-05-01T06:26:37.807Z,35.20
2019-05-01T06:29:07.899Z,37.00
2019-05-01T06:31:37.981Z,42.20
2019-05-01T06:34:09.991Z,40.80
2019-05-01T06:36:44.321Z,39.20
2019-05-01T06:39:13.463Z,45.20
2019-05-01T06:41:46.477Z,34.20
2019-05-01T06:44:41.772Z,38.60
2019-05-01T06:47:29.293Z,30.80
2019-05-01T06:50:18.467Z,45.00
2019-05-01T06:52:48.291Z,41.80
2019-05-01T06:55:18.129Z,40.40
2019-05-01T06:57:48.003Z,36.20
2019-05-01T07:00:18.598Z,40.80
2019-05-01T07:02:49.806Z,42.00
2019-05-01T07:05:20.798Z,49.20
2019-05-01T07:07:53.195Z,46.00
2019-05-01T07:10:30.682Z,40.40
2019-05-01T07:12:53.890Z,52.40
2019-05-01T07:15:26.915Z,52.60
2019-05-01T07:17:55.212Z,51.40
2019-05-01T07:20:47.288Z,48.00
2019-05-01T07:23:18.985Z,40.20
2019-05-01T07:25:49.037Z,47.60
2019-05-01T07:28:19.475Z,47.60
2019-05-01T07:31:01.100Z,53.60
2019-05-01T07:33:30.966Z,47.80
2019-05-01T07:36:00.909Z,52.40
2019-05-01T07:38:36.439Z,59.40
2019-05-01T07:41:03.759Z,55.60
2019-05-01T07:43:59.818Z,41.60
2019-05-01T07:46:42.053Z,58.00
2019-05-01T07:49:13.064Z,45.00
2019-05-01T07:51:51.129Z,61.80
2019-05-01T07:54:21.370Z,55.40
2019-05-01T07:56:51.450Z,61.40
2019-05-01T07:59:22.774Z,64.40
2019-05-01T08:02:02.366Z,50.60
2019-05-01T08:04:36.292Z,51.00
2019-05-01T08:07:03.803Z,60.00
2019-05-01T08:09:35.710Z,68.60
2019-05-01T08:12:07.236Z,66.20
2019-05-01T08:14:37.126Z,56.20
2019-05-01T08:17:07.010Z,52.40
2019-05-01T08:19:46.230Z,62.40
2019-05-01T08:22:32.138Z,62.40
2019-05-01T08:25:00.032Z,64.60
2019-05-01T08:28:01.207Z,45.00
2019-05-01T08:30:54.001Z,63.80
2019-05-01T08:33:52.436Z,64.00
2019-05-01T08:36:22.185Z,48.40
2019-05-01T08:38:52.069Z,64.60
2019-05-01T08:41:21.993Z,51.80
2019-05-01T08:43:54.103Z,51.00
2019-05-01T08:46:46.756Z,47.40
2019-05-01T08:49:41.751Z,53.60
2019-05-01T08:52:13.679Z,54.20
2019-05-01T08:54:43.144Z,66.20
2019-05-01T08:57:13.684Z,64.80
2019-05-01T08:59:43.535Z,67.20
2019-05-01T09:02:13.453Z,67.40
2019-05-01T09:04:43.073Z,53.00
2019-05-01T09:07:14.601Z,56.20
2019-05-01T09:09:45.666Z,63.20
2019-05-01T09:12:16.405Z,54.20
2019-05-01T09:14:46.773Z,58.40
2019-05-01T09:17:16.665Z,52.80
2019-05-01T09:19:46.856Z,45.00
2019-05-01T09:22:16.622Z,65.00
2019-05-01T09:24:50.033Z,59.60
2019-05-01T09:27:38.812Z,68.80
2019-05-01T09:30:21.984Z,68.00
2019-05-01T09:32:54.107Z,50.20
2019-05-01T09:35:22.345Z,55.60
2019-05-01T09:37:52.171Z,63.20
2019-05-01T09:40:22.002Z,68.20
2019-05-01T09:42:54.637Z,68.40
2019-05-01T09:45:23.493Z,50.00
2019-05-01T09:47:53.482Z,61.40
2019-05-01T09:50:25.952Z,59.00
2019-05-01T09:53:08.843Z,55.20
2019-05-01T09:55:45.384Z,65.40
2019-05-01T09:58:15.167Z,65.20
2019-05-01T10:00:48.751Z,63.60
2019-05-01T10:03:18.119Z,56.20
2019-05-01T10:05:48.409Z,62.00
2019-05-01T10:08:18.594Z,49.20
2019-05-01T10:10:51.373Z,56.40
2019-05-01T10:13:22.386Z,68.80
2019-05-01T10:15:59.282Z,47.20
2019-05-01T10:18:33.603Z,62.80
2019-05-01T10:21:14.155Z,62.00
2019-05-01T10:23:47.049Z,57.40
2019-05-01T10:26:19.117Z,69.00
2019-05-01T10:29:05.600Z,57.20
2019-05-01T10:31:54.344Z,63.40
2019-05-01T10:34:44.452Z,53.00
2019-05-01T10:37:23.697Z,60.60
2019-05-01T10:39:55.317Z,56.80
2019-05-01T10:42:25.293Z,65.00
2019-05-01T10:44:55.544Z,62.40
2019-05-01T10:47:26.669Z,59.40
2019-05-01T10:49:56.638Z,58.20
2019-05-01T10:52:27.609Z,49.00
2019-05-01T10:55:01.451Z,57.80
2019-05-01T10:57:35.080Z,74.20
2019-05-01T11:00:02.520Z,52.20
2019-05-01T11:02:33.682Z,57.20
2019-05-01T11:05:03.804Z,69.80
2019-05-01T11:07:33.777Z,53.40
2019-05-01T11:10:03.933Z,64.20
2019-05-01T11:12:33.631Z,64.40
2019-05-01T11:15:08.361Z,56.20
2019-05-01T11:17:38.559Z,62.80
2019-05-01T11:20:11.893Z,59.80
2019-05-01T11:22:41.721Z,68.00
2019-05-01T11:25:13.426Z,62.60
2019-05-01T11:27:43.199Z,52.60
2019-05-01T11:30:13.355Z,57.40
2019-05-01T11:33:08.197Z,52.20
2019-05-01T11:35:55.056Z,56.60
2019-05-01T11:38:33.998Z,57.20
2019-05-01T11:41:08.428Z,43.40
2019-05-01T11:43:38.839Z,52.20
2019-05-01T11:46:08.388Z,52.80
2019-05-01T11:48:38.410Z,55.80
2019-05-01T11:51:08.263Z,49.40
2019-05-01T11:53:37.984Z,62.60
2019-05-01T11:56:08.063Z,47.20
2019-05-01T11:58:37.776Z,55.20
2019-05-01T12:01:09.887Z,55.20
2019-05-01T12:03:39.662Z,51.60
2019-05-01T12:06:21.864Z,49.80
2019-05-01T12:08:40.665Z,48.20
2019-05-01T12:11:11.677Z,45.80
2019-05-01T12:13:43.819Z,52.20
2019-05-01T12:16:37.728Z,47.00
2019-05-01T12:19:07.375Z,49.80
2019-05-01T12:21:37.619Z,56.60
2019-05-01T12:24:07.459Z,45.80
2019-05-01T12:26:38.103Z,64.00
2019-05-01T12:29:09.094Z,39.60
2019-05-01T12:31:42.420Z,24.00
2019-05-01T12:34:12.076Z,40.80
2019-05-01T12:36:50.319Z,44.00
2019-05-01T12:39:20.283Z,49.60
2019-05-01T12:41:55.405Z,53.00
2019-05-01T12:44:27.181Z,44.00
2019-05-01T12:47:04.892Z,33.00
2019-05-01T12:49:34.851Z,45.40
2019-05-01T12:52:10.710Z,48.20
2019-05-01T12:54:53.238Z,123.00
2019-05-01T12:57:23.663Z,41.00
2019-05-01T13:00:07.581Z,51.60
2019-05-01T13:02:28.311Z,48.80
2019-05-01T13:04:58.715Z,39.80
2019-05-01T13:07:28.998Z,42.20
2019-05-01T13:09:59.015Z,40.80
2019-05-01T13:12:28.883Z,51.40
2019-05-01T13:14:59.212Z,49.80
2019-05-01T13:17:29.135Z,52.60
2019-05-01T13:19:59.195Z,49.60
2019-05-01T13:22:29.122Z,46.40
2019-05-01T13:25:01.600Z,45.80
2019-05-01T13:27:37.946Z,49.60
2019-05-01T13:30:19.215Z,44.80
2019-05-01T13:32:50.770Z,39.00
2019-05-01T13:35:20.821Z,30.80
2019-05-01T13:37:50.523Z,33.00
2019-05-01T13:40:23.001Z,37.40
2019-05-01T13:42:52.834Z,42.40
2019-05-01T13:45:22.740Z,45.20
2019-05-01T13:47:54.449Z,39.60
2019-05-01T13:50:23.895Z,59.20
2019-05-01T13:52:53.728Z,64.00
2019-05-01T13:55:23.704Z,63.80
2019-05-01T13:57:53.289Z,56.20
2019-05-01T14:00:26.425Z,57.00
2019-05-01T14:02:56.169Z,54.40
2019-05-01T14:05:29.674Z,66.80
2019-05-01T14:08:00.119Z,49.60
2019-05-01T14:10:30.148Z,60.80
2019-05-01T14:12:59.877Z,64.00
2019-05-01T14:15:29.755Z,64.40
2019-05-01T14:17:59.616Z,64.00
2019-05-01T14:20:48.025Z,65.00
2019-05-01T14:23:28.915Z,65.60
2019-05-01T14:26:03.665Z,59.40
2019-05-01T14:28:34.297Z,58.40
2019-05-01T14:31:07.670Z,65.20
2019-05-01T14:33:37.507Z,65.80
2019-05-01T14:36:08.995Z,62.40
2019-05-01T14:38:38.647Z,67.20
2019-05-01T14:41:13.907Z,70.60
2019-05-01T14:43:44.015Z,69.20
2019-05-01T14:46:16.592Z,69.60
2019-05-01T14:48:46.176Z,71.00
2019-05-01T14:51:21.437Z,71.60
2019-05-01T14:53:49.244Z,71.60
2019-05-01T14:56:20.027Z,73.00
2019-05-01T14:58:51.348Z,67.40
2019-05-01T15:01:21.379Z,64.80
2019-05-01T15:03:51.339Z,68.40
2019-05-01T15:06:21.167Z,42.80
2019-05-01T15:08:50.789Z,64.20
2019-05-01T15:11:21.142Z,63.60
2019-05-01T15:14:18.808Z,67.80
2019-05-01T15:16:53.665Z,60.80
2019-05-01T15:19:28.200Z,57.40
2019-05-01T15:22:03.924Z,59.80
2019-05-01T15:24:34.153Z,61.00
2019-05-01T15:27:04.346Z,57.00
2019-05-01T15:29:33.980Z,54.80
2019-05-01T15:32:04.549Z,65.80
2019-05-01T15:34:34.422Z,58.80
2019-05-01T15:37:04.322Z,49.20
2019-05-01T15:39:42.315Z,54.40
2019-05-01T15:42:32.669Z,47.60
2019-05-01T15:47:36.997Z,54.40
2019-05-01T15:50:08.739Z,46.20
2019-05-01T15:52:41.036Z,56.80
2019-05-01T15:55:11.094Z,63.80
2019-05-01T15:57:40.672Z,35.80
2019-05-01T16:00:13.856Z,38.60
2019-05-01T16:02:44.125Z,56.40
2019-05-01T16:05:14.287Z,64.20
2019-05-01T16:07:44.254Z,46.40
2019-05-01T16:10:18.563Z,65.20
2019-05-01T16:12:58.262Z,41.40
2019-05-01T16:18:05.197Z,40.40
2019-05-01T16:20:41.403Z,57.40
2019-05-01T16:23:11.356Z,55.60
2019-05-01T16:25:40.864Z,64.60
2019-05-01T16:28:10.528Z,60.60
2019-05-01T16:30:43.426Z,59.20
2019-05-01T16:33:14.231Z,63.40
2019-05-01T16:35:43.856Z,58.00
2019-05-01T16:38:25.271Z,54.40
2019-05-01T16:41:13.170Z,61.40
2019-05-01T16:43:42.691Z,63.00
2019-05-01T16:46:12.458Z,43.20
2019-05-01T16:48:42.148Z,55.40
2019-05-01T16:51:15.099Z,58.40
2019-05-01T16:53:44.691Z,56.40
2019-05-01T16:56:15.146Z,60.40
2019-05-01T16:58:45.191Z,60.40
2019-05-01T17:01:33.764Z,61.40
2019-05-01T17:04:09.212Z,51.40
2019-05-01T17:06:50.545Z,65.60
2019-05-01T17:12:48.724Z,48.40
2019-05-01T17:15:26.599Z,66.80
2019-05-01T17:17:56.438Z,64.00
2019-05-01T17:20:26.614Z,60.00
2019-05-01T17:22:56.247Z,57.00
2019-05-01T17:25:26.245Z,36.20
2019-05-01T17:27:56.666Z,56.80
2019-05-01T17:30:44.761Z,68.80
2019-05-01T17:33:20.799Z,63.20
2019-05-01T17:35:49.245Z,61.60
2019-05-01T17:38:20.741Z,69.20
2019-05-01T17:40:52.262Z,69.00
2019-05-01T17:43:23.225Z,65.00
2019-05-01T17:45:52.931Z,73.00
2019-05-01T17:48:28.920Z,71.00
2019-05-01T17:51:02.280Z,63.80
2019-05-01T17:53:35.801Z,64.20
2019-05-01T17:56:10.233Z,64.80
2019-05-01T17:58:37.054Z,73.80
2019-05-01T18:01:27.938Z,74.20
2019-05-01T18:04:03.206Z,70.00
2019-05-01T18:06:35.671Z,72.80
2019-05-01T18:09:16.904Z,74.60
2019-05-01T18:11:52.079Z,73.80
2019-05-01T18:14:20.626Z,76.40
2019-05-01T18:17:04.361Z,75.80
2019-05-01T18:19:38.384Z,78.40
2019-05-01T18:22:36.977Z,77.60
2019-05-01T18:25:28.129Z,71.00
2019-05-01T18:28:32.363Z,84.80
2019-05-01T18:31:02.468Z,65.00
2019-05-01T18:33:33.131Z,73.60
2019-05-01T18:36:04.395Z,68.60
2019-05-01T18:38:55.401Z,77.00
2019-05-01T18:41:58.757Z,72.40
2019-05-01T18:44:29.080Z,85.20
2019-05-01T18:46:59.063Z,77.80
2019-05-01T18:49:29.558Z,78.40
2019-05-01T18:52:02.031Z,75.80
2019-05-01T18:54:34.980Z,69.20
2019-05-01T18:57:04.763Z,67.80
2019-05-01T18:59:34.627Z,70.60
2019-05-01T19:02:06.217Z,62.80
2019-05-01T19:04:36.586Z,65.60
2019-05-01T19:07:08.013Z,57.40
2019-05-01T19:09:37.792Z,58.40
2019-05-01T19:12:10.127Z,68.40
2019-05-01T19:14:40.110Z,63.80
2019-05-01T19:17:15.934Z,73.80
2019-05-01T19:19:50.692Z,67.40
2019-05-01T19:22:20.447Z,69.80
2019-05-01T19:24:57.013Z,62.00
2019-05-01T19:27:24.420Z,74.80
2019-05-01T19:29:57.919Z,64.20
2019-05-01T19:32:27.765Z,63.40
2019-05-01T19:35:00.420Z,61.60
2019-05-01T19:37:31.032Z,68.20
2019-05-01T19:40:01.557Z,66.80
2019-05-01T19:42:31.770Z,69.60
2019-05-01T19:45:02.498Z,71.80
2019-05-01T19:47:38.410Z,67.40
2019-05-01T19:50:10.117Z,69.40
2019-05-01T19:52:40.268Z,67.40
2019-05-01T19:55:09.968Z,62.00
2019-05-01T19:57:39.783Z,61.00
2019-05-01T20:00:09.834Z,70.20
2019-05-01T20:02:40.141Z,67.80
2019-05-01T20:05:11.472Z,65.40
2019-05-01T20:07:43.943Z,72.80
2019-05-01T20:10:20.926Z,61.60
2019-05-01T20:12:50.720Z,67.40
2019-05-01T20:15:25.198Z,55.40
2019-05-01T20:17:52.793Z,58.60
2019-05-01T20:20:23.884Z,69.20
2019-05-01T20:22:55.345Z,66.40
2019-05-01T20:25:25.582Z,70.40
2019-05-01T20:27:57.411Z,69.20
2019-05-01T20:30:27.142Z,74.60
2019-05-01T20:32:58.215Z,71.00
2019-05-01T20:35:30.170Z,75.00
2019-05-01T20:38:01.131Z,65.80
2019-05-01T20:40:30.914Z,45.80
2019-05-01T20:43:05.913Z,65.40
2019-05-01T20:45:39.817Z,66.00
2019-05-01T20:48:09.999Z,68.00
2019-05-01T20:50:40.079Z,55.20
2019-05-01T20:53:09.939Z,77.60
2019-05-01T20:55:40.812Z,65.60
2019-05-01T20:58:18.023Z,72.60
2019-05-01T21:00:53.438Z,65.40
2019-05-01T21:03:22.235Z,63.00
2019-05-01T21:05:57.762Z,74.60
2019-05-01T21:08:55.917Z,67.20
2019-05-01T21:11:32.047Z,67.00
2019-05-01T21:14:16.778Z,73.40
2019-05-01T21:16:38.085Z,75.60
2019-05-01T21:19:05.605Z,66.40
2019-05-01T21:21:35.637Z,72.20
2019-05-01T21:24:05.639Z,73.00
2019-05-01T21:26:35.438Z,70.60
2019-05-01T21:29:13.864Z,64.80
2019-05-01T21:31:44.070Z,69.20
2019-05-01T21:34:14.685Z,72.80
2019-05-01T21:36:47.748Z,54.00
2019-05-01T21:39:17.972Z,70.20
2019-05-01T21:41:47.643Z,75.40
2019-05-01T21:44:19.222Z,63.80
2019-05-01T21:46:50.153Z,67.20
2019-05-01T21:49:22.911Z,68.40
2019-05-01T21:51:53.078Z,77.00
2019-05-01T21:54:23.189Z,68.40
2019-05-01T21:56:53.378Z,56.20
2019-05-01T21:59:26.267Z,67.00
2019-05-01T22:01:56.532Z,66.20
2019-05-01T22:04:27.795Z,70.60
2019-05-01T22:06:58.071Z,61.80
2019-05-01T22:09:28.821Z,71.20
2019-05-01T22:11:58.602Z,68.40
2019-05-01T22:14:47.245Z,76.60
2019-05-01T22:17:27.303Z,66.60
2019-05-01T22:19:55.935Z,67.40
2019-05-01T22:22:44.173Z,67.80
2019-05-01T22:25:17.313Z,67.20
2019-05-01T22:27:55.303Z,57.00
2019-05-01T22:30:33.080Z,61.20
2019-05-01T22:33:02.911Z,71.40
2019-05-01T22:35:42.583Z,71.20
2019-05-01T22:38:12.362Z,71.60
2019-05-01T22:41:05.064Z,73.00
2019-05-01T22:43:22.772Z,78.20
2019-05-01T22:45:56.393Z,72.60
2019-05-01T22:48:24.432Z,68.40
2019-05-01T22:50:57.102Z,78.20
2019-05-01T22:53:27.110Z,66.60
2019-05-01T22:55:57.390Z,69.60
2019-05-01T22:58:27.938Z,81.00
2019-05-01T23:01:00.738Z,72.80
2019-05-01T23:03:52.246Z,76.20
2019-05-01T23:06:22.503Z,66.60
2019-05-01T23:08:53.004Z,83.00
2019-05-01T23:11:24.804Z,65.60
2019-05-01T23:13:54.486Z,69.80
2019-05-01T23:16:28.711Z,71.80
2019-05-01T23:18:57.280Z,56.00
2019-05-01T23:21:28.650Z,75.40
2019-05-01T23:24:01.905Z,58.40
2019-05-01T23:26:30.136Z,76.60
2019-05-01T23:29:00.504Z,70.00
2019-05-01T23:31:30.686Z,75.20
2019-05-01T23:34:00.466Z,65.40
2019-05-01T23:36:31.371Z,81.40
2019-05-01T23:39:01.073Z,65.40
2019-05-01T23:41:45.312Z,69.80
2019-05-01T23:44:05.360Z,77.80
2019-05-01T23:46:35.492Z,55.40
2019-05-01T23:49:05.105Z,76.80
2019-05-01T23:51:34.881Z,49.00
2019-05-01T23:54:04.627Z,74.20
2019-05-01T23:56:35.021Z,71.40
2019-05-01T23:59:05.959Z,75.60
